createdAt,value
2019-03-21T00:00:07.657Z,0
2019-03-21T00:00:33.789Z,0
2019-03-21T00:01:00.182Z,0
2019-03-21T00:01:26.263Z,0
2019-03-21T00:01:52.366Z,0
2019-03-21T00:02:18.498Z,0
2019-03-21T00:02:44.602Z,0
2019-03-21T00:03:10.709Z,0
2019-03-21T00:03:36.820Z,0
2019-03-21T00:04:02.953Z,0
2019-03-21T00:04:29.066Z,0
2019-03-21T00:04:55.177Z,0
2019-03-21T00:05:21.291Z,0
2019-03-21T00:05:47.461Z,0
2019-03-21T00:06:13.572Z,0
2019-03-21T00:06:39.679Z,0
2019-03-21T00:07:05.807Z,0
2019-03-21T00:07:31.914Z,0
2019-03-21T00:07:58.020Z,0
2019-03-21T00:08:24.279Z,0
2019-03-21T00:08:50.386Z,0
2019-03-21T00:09:16.565Z,0
2019-03-21T00:09:42.681Z,0
2019-03-21T00:10:08.787Z,0
2019-03-21T00:10:34.901Z,0
2019-03-21T00:11:01.062Z,0
2019-03-21T00:11:27.112Z,0
2019-03-21T00:11:53.228Z,0
2019-03-21T00:12:19.345Z,0
2019-03-21T00:12:45.454Z,0
2019-03-21T00:13:11.745Z,0
2019-03-21T00:13:37.859Z,0
2019-03-21T00:14:07.106Z,0
2019-03-21T00:14:32.075Z,0
2019-03-21T00:14:58.204Z,0
2019-03-21T00:15:24.318Z,0
2019-03-21T00:15:50.425Z,0
2019-03-21T00:16:17.619Z,0
2019-03-21T00:16:43.803Z,0
2019-03-21T00:17:10.179Z,0
2019-03-21T00:17:36.335Z,0
2019-03-21T00:18:02.454Z,0
2019-03-21T00:18:28.922Z,0
2019-03-21T00:18:55.093Z,0
2019-03-21T00:19:21.417Z,0
2019-03-21T00:19:47.560Z,0
2019-03-21T00:20:13.661Z,0
2019-03-21T00:20:39.821Z,0
2019-03-21T00:21:05.977Z,0
2019-03-21T00:21:32.115Z,0
2019-03-21T00:21:58.224Z,0
2019-03-21T00:22:24.364Z,0
2019-03-21T00:22:50.486Z,0
2019-03-21T00:23:16.594Z,0
2019-03-21T00:23:42.695Z,0
2019-03-21T00:24:08.805Z,0
2019-03-21T00:24:34.911Z,0
2019-03-21T00:25:01.012Z,0
2019-03-21T00:25:27.120Z,0
2019-03-21T00:26:21.982Z,0
2019-03-21T00:26:48.444Z,0
2019-03-21T00:27:14.723Z,0
2019-03-21T00:27:41.132Z,0
2019-03-21T00:28:07.234Z,0
2019-03-21T00:28:33.624Z,0
2019-03-21T00:28:59.732Z,0
2019-03-21T00:29:26.290Z,0
2019-03-21T00:29:53.549Z,0
2019-03-21T00:30:20.123Z,0
2019-03-21T00:30:46.498Z,0
2019-03-21T00:31:13.066Z,0
2019-03-21T00:31:40.224Z,0
2019-03-21T00:32:07.112Z,0
2019-03-21T00:32:33.183Z,0
2019-03-21T00:33:00.110Z,0
2019-03-21T00:33:26.975Z,0
2019-03-21T00:33:53.397Z,0
2019-03-21T00:34:20.346Z,0
2019-03-21T00:34:47.397Z,0
2019-03-21T00:35:15.175Z,0
2019-03-21T00:35:42.848Z,0
2019-03-21T00:36:10.845Z,0
2019-03-21T00:36:38.873Z,0
2019-03-21T00:37:06.632Z,0
2019-03-21T00:37:34.280Z,0
2019-03-21T00:38:02.189Z,0
2019-03-21T00:38:30.146Z,0
2019-03-21T00:38:58.162Z,0
2019-03-21T00:39:32.581Z,0
2019-03-21T00:39:53.334Z,0
2019-03-21T00:40:21.037Z,0
2019-03-21T00:40:48.970Z,0
2019-03-21T00:41:16.843Z,0
2019-03-21T00:41:44.813Z,0
2019-03-21T00:42:12.787Z,0
2019-03-21T00:42:40.493Z,0
2019-03-21T00:43:08.386Z,0
2019-03-21T00:43:36.233Z,0
2019-03-21T00:44:04.052Z,0
2019-03-21T00:44:32.011Z,0
2019-03-21T00:44:59.504Z,0
2019-03-21T00:45:27.282Z,0
2019-03-21T00:45:54.690Z,0
2019-03-21T00:46:22.422Z,0
2019-03-21T00:46:50.452Z,0
2019-03-21T00:47:18.400Z,0
2019-03-21T00:47:46.110Z,0
2019-03-21T00:48:13.597Z,0
2019-03-21T00:48:41.169Z,0
2019-03-21T00:49:08.594Z,0
2019-03-21T00:49:35.398Z,0
2019-03-21T00:50:02.678Z,0
2019-03-21T00:50:30.610Z,0
2019-03-21T00:50:58.503Z,0
2019-03-21T00:51:26.144Z,0
2019-03-21T00:51:53.555Z,0
2019-03-21T00:52:21.463Z,0
2019-03-21T00:52:49.243Z,0
2019-03-21T00:53:17.248Z,0
2019-03-21T00:53:44.921Z,0
2019-03-21T00:54:12.525Z,0
2019-03-21T00:54:40.342Z,0
2019-03-21T00:55:06.745Z,0
2019-03-21T00:55:32.881Z,0
2019-03-21T00:55:59.963Z,0
2019-03-21T00:56:26.078Z,0
2019-03-21T00:56:53.074Z,0
2019-03-21T00:57:19.765Z,0
2019-03-21T00:57:47.609Z,0
2019-03-21T00:58:15.756Z,0
2019-03-21T00:58:43.760Z,0
2019-03-21T00:59:10.390Z,0
2019-03-21T00:59:36.948Z,0
2019-03-21T01:00:03.867Z,0
2019-03-21T01:00:30.893Z,0
2019-03-21T01:00:58.340Z,0
2019-03-21T01:01:25.847Z,0
2019-03-21T01:01:53.195Z,0
2019-03-21T01:02:21.058Z,0
2019-03-21T01:02:48.654Z,0
2019-03-21T01:03:15.416Z,0
2019-03-21T01:03:42.745Z,0
2019-03-21T01:04:10.286Z,0
2019-03-21T01:04:37.437Z,0
2019-03-21T01:05:04.539Z,0
2019-03-21T01:05:31.660Z,0
2019-03-21T01:05:59.773Z,0
2019-03-21T01:06:27.684Z,0
2019-03-21T01:06:55.145Z,0
2019-03-21T01:07:23.005Z,0
2019-03-21T01:07:51.056Z,0
2019-03-21T01:08:18.514Z,0
2019-03-21T01:08:45.775Z,0
2019-03-21T01:09:12.764Z,0
2019-03-21T01:09:41.008Z,0
2019-03-21T01:10:08.121Z,0
2019-03-21T01:10:35.356Z,0
2019-03-21T01:11:02.649Z,0
2019-03-21T01:11:30.198Z,0
2019-03-21T01:11:57.853Z,0
2019-03-21T01:12:25.730Z,0
2019-03-21T01:12:53.810Z,0
2019-03-21T01:13:21.811Z,0
2019-03-21T01:13:49.518Z,0
2019-03-21T01:14:17.217Z,0
2019-03-21T01:14:45.112Z,0
2019-03-21T01:15:12.886Z,0
2019-03-21T01:15:40.657Z,0
2019-03-21T01:16:08.435Z,0
2019-03-21T01:16:36.168Z,0
2019-03-21T01:17:03.952Z,0
2019-03-21T01:17:31.777Z,0
2019-03-21T01:17:59.748Z,0
2019-03-21T01:18:27.778Z,0
2019-03-21T01:18:55.506Z,0
2019-03-21T01:19:23.602Z,0
2019-03-21T01:19:51.426Z,0
2019-03-21T01:20:19.189Z,0
2019-03-21T01:20:47.081Z,0
2019-03-21T01:21:14.988Z,0
2019-03-21T01:21:42.887Z,0
2019-03-21T01:22:10.817Z,0
2019-03-21T01:22:38.722Z,0
2019-03-21T01:23:06.495Z,0
2019-03-21T01:23:34.269Z,0
2019-03-21T01:24:02.024Z,0
2019-03-21T01:24:29.798Z,0
2019-03-21T01:24:57.775Z,0
2019-03-21T01:25:25.822Z,0
2019-03-21T01:25:53.474Z,0
2019-03-21T01:26:21.524Z,0
2019-03-21T01:26:49.704Z,0
2019-03-21T01:27:17.630Z,0
2019-03-21T01:27:45.626Z,0
2019-03-21T01:28:13.559Z,0
2019-03-21T01:28:41.425Z,0
2019-03-21T01:29:09.225Z,0
2019-03-21T01:29:37.036Z,0
2019-03-21T01:30:04.951Z,0
2019-03-21T01:30:32.891Z,0
2019-03-21T01:31:00.714Z,0
2019-03-21T01:31:28.515Z,0
2019-03-21T01:31:56.433Z,0
2019-03-21T01:32:24.122Z,0
2019-03-21T01:32:52.041Z,0
2019-03-21T01:33:19.994Z,0
2019-03-21T01:33:47.909Z,0
2019-03-21T01:34:15.592Z,0
2019-03-21T01:34:43.425Z,0
2019-03-21T01:35:11.071Z,0
2019-03-21T01:35:38.992Z,0
2019-03-21T01:36:06.880Z,0
2019-03-21T01:36:34.607Z,0
2019-03-21T01:37:02.448Z,0
2019-03-21T01:37:30.486Z,0
2019-03-21T01:37:58.489Z,0
2019-03-21T01:38:26.280Z,0
2019-03-21T01:38:54.058Z,0
2019-03-21T01:39:21.837Z,0
2019-03-21T01:39:49.747Z,0
2019-03-21T01:40:17.780Z,0
2019-03-21T01:40:45.748Z,0
2019-03-21T01:41:13.737Z,0
2019-03-21T01:41:41.652Z,0
2019-03-21T01:42:09.306Z,0
2019-03-21T01:42:37.074Z,0
2019-03-21T01:43:04.935Z,0
2019-03-21T01:43:32.425Z,0
2019-03-21T01:43:59.116Z,0
2019-03-21T01:44:25.867Z,0
2019-03-21T01:44:53.225Z,0
2019-03-21T01:45:20.444Z,0
2019-03-21T01:45:47.073Z,0
2019-03-21T01:46:13.842Z,0
2019-03-21T01:46:40.396Z,0
2019-03-21T01:47:06.937Z,0
2019-03-21T01:47:33.353Z,0
2019-03-21T01:48:00.097Z,0
2019-03-21T01:48:26.982Z,0
2019-03-21T01:48:53.536Z,0
2019-03-21T01:49:21.090Z,0
2019-03-21T01:49:48.201Z,0
2019-03-21T01:50:14.608Z,0
2019-03-21T01:50:41.066Z,0
2019-03-21T01:51:07.194Z,0
2019-03-21T01:51:33.281Z,0
2019-03-21T01:52:00.051Z,0
2019-03-21T01:52:27.291Z,0
2019-03-21T01:52:55.462Z,0
2019-03-21T01:53:23.565Z,0
2019-03-21T01:53:51.691Z,0
2019-03-21T01:54:19.674Z,0
2019-03-21T01:54:47.091Z,0
2019-03-21T01:55:14.110Z,0
2019-03-21T01:55:40.154Z,0
2019-03-21T01:56:06.539Z,0
2019-03-21T01:56:33.024Z,0
2019-03-21T01:56:59.127Z,0
2019-03-21T01:57:26.011Z,0
2019-03-21T01:57:52.330Z,0
2019-03-21T01:58:18.811Z,0
2019-03-21T01:58:45.964Z,0
2019-03-21T01:59:12.733Z,0
2019-03-21T01:59:39.426Z,0
2019-03-21T02:00:06.820Z,0
2019-03-21T02:00:33.318Z,0
2019-03-21T02:01:00.122Z,0
2019-03-21T02:01:26.567Z,0
2019-03-21T02:01:52.772Z,0
2019-03-21T02:02:19.633Z,0
2019-03-21T02:02:46.196Z,0
2019-03-21T02:03:12.678Z,0
2019-03-21T02:03:39.395Z,0
2019-03-21T02:04:06.997Z,0
2019-03-21T02:04:33.795Z,0
2019-03-21T02:05:00.852Z,0
2019-03-21T02:05:27.688Z,0
2019-03-21T02:05:54.935Z,0
2019-03-21T02:06:21.639Z,0
2019-03-21T02:06:49.142Z,0
2019-03-21T02:07:16.247Z,0
2019-03-21T02:07:44.061Z,0
2019-03-21T02:08:11.532Z,0
2019-03-21T02:08:38.651Z,0
2019-03-21T02:09:06.496Z,0
2019-03-21T02:09:34.084Z,0
2019-03-21T02:10:01.760Z,0
2019-03-21T02:10:29.264Z,0
2019-03-21T02:10:55.704Z,0
2019-03-21T02:11:23.162Z,0
2019-03-21T02:11:50.927Z,0
2019-03-21T02:12:18.534Z,0
2019-03-21T02:12:45.880Z,0
2019-03-21T02:13:12.965Z,0
2019-03-21T02:13:40.075Z,0
2019-03-21T02:14:07.614Z,0
2019-03-21T02:14:35.056Z,0
2019-03-21T02:15:03.332Z,0
2019-03-21T02:15:30.652Z,0
2019-03-21T02:15:59.218Z,0
2019-03-21T02:16:24.681Z,0
2019-03-21T02:16:51.795Z,0
2019-03-21T02:17:18.897Z,0
2019-03-21T02:17:45.988Z,0
2019-03-21T02:18:13.854Z,0
2019-03-21T02:18:41.757Z,0
2019-03-21T02:19:08.709Z,0
2019-03-21T02:19:35.875Z,0
2019-03-21T02:20:02.945Z,0
2019-03-21T02:20:30.425Z,0
2019-03-21T02:20:56.802Z,0
2019-03-21T02:21:24.223Z,0
2019-03-21T02:21:51.190Z,0
2019-03-21T02:22:18.023Z,0
2019-03-21T02:22:46.078Z,0
2019-03-21T02:23:13.712Z,0
2019-03-21T02:23:40.350Z,0
2019-03-21T02:24:06.753Z,0
2019-03-21T02:24:34.475Z,0
2019-03-21T02:25:02.229Z,0
2019-03-21T02:25:29.597Z,0
2019-03-21T02:25:56.544Z,0
2019-03-21T02:26:24.642Z,0
2019-03-21T02:26:52.507Z,0
2019-03-21T02:27:20.367Z,0
2019-03-21T02:27:48.156Z,0
2019-03-21T02:28:16.005Z,0
2019-03-21T02:28:44.048Z,0
2019-03-21T02:29:11.812Z,0
2019-03-21T02:29:39.723Z,0
2019-03-21T02:30:07.594Z,0
2019-03-21T02:30:35.510Z,0
2019-03-21T02:31:03.658Z,0
2019-03-21T02:31:31.243Z,0
2019-03-21T02:31:58.834Z,0
2019-03-21T02:32:26.447Z,0
2019-03-21T02:32:53.183Z,0
2019-03-21T02:33:19.383Z,0
2019-03-21T02:33:46.170Z,0
2019-03-21T02:34:12.319Z,0
2019-03-21T02:34:38.425Z,0
2019-03-21T02:35:05.534Z,0
2019-03-21T02:35:31.741Z,0
2019-03-21T02:35:57.910Z,0
2019-03-21T02:36:24.008Z,0
2019-03-21T02:36:50.726Z,0
2019-03-21T02:37:17.197Z,0
2019-03-21T02:37:45.357Z,0
2019-03-21T02:38:11.856Z,0
2019-03-21T02:38:38.304Z,0
2019-03-21T02:39:04.470Z,0
2019-03-21T02:39:31.365Z,0
2019-03-21T02:40:00.259Z,0
2019-03-21T02:40:26.536Z,0
2019-03-21T02:40:53.144Z,0
2019-03-21T02:41:19.988Z,0
2019-03-21T02:41:47.150Z,0
2019-03-21T02:42:14.016Z,0
2019-03-21T02:42:40.462Z,0
2019-03-21T02:43:06.564Z,0
2019-03-21T02:43:33.996Z,0
2019-03-21T02:44:00.350Z,0
2019-03-21T02:44:26.479Z,0
2019-03-21T02:45:07.103Z,0
2019-03-21T02:45:20.267Z,0
2019-03-21T02:45:46.389Z,0
2019-03-21T02:46:12.499Z,0
2019-03-21T02:46:38.628Z,0
2019-03-21T02:47:04.805Z,0
2019-03-21T02:47:30.941Z,0
2019-03-21T02:47:57.077Z,0
2019-03-21T02:48:23.247Z,0
2019-03-21T02:48:49.414Z,0
2019-03-21T02:49:15.551Z,0
2019-03-21T02:49:41.735Z,0
2019-03-21T02:50:07.869Z,0
2019-03-21T02:50:34.027Z,0
2019-03-21T02:51:00.143Z,0
2019-03-21T02:51:26.317Z,0
2019-03-21T02:51:52.433Z,0
2019-03-21T02:52:18.573Z,0
2019-03-21T02:52:44.707Z,0
2019-03-21T02:53:10.840Z,0
2019-03-21T02:53:36.979Z,0
2019-03-21T02:54:03.140Z,0
2019-03-21T02:54:29.258Z,0
2019-03-21T02:54:55.368Z,0
2019-03-21T02:55:21.536Z,0
2019-03-21T02:55:47.673Z,0
2019-03-21T02:56:13.783Z,0
2019-03-21T02:56:39.886Z,0
2019-03-21T02:57:06.022Z,0
2019-03-21T02:57:32.126Z,0
2019-03-21T02:57:58.262Z,0
2019-03-21T02:58:24.405Z,0
2019-03-21T02:58:50.569Z,0
2019-03-21T02:59:16.676Z,0
2019-03-21T02:59:42.867Z,0
2019-03-21T03:00:09.002Z,0
2019-03-21T03:00:35.120Z,0
2019-03-21T03:01:01.247Z,0
2019-03-21T03:01:27.360Z,0
2019-03-21T03:01:53.477Z,0
2019-03-21T03:02:19.583Z,0
2019-03-21T03:02:46.730Z,0
2019-03-21T03:03:12.885Z,0
2019-03-21T03:03:38.978Z,0
2019-03-21T03:04:05.089Z,0
2019-03-21T03:04:31.226Z,0
2019-03-21T03:04:57.365Z,0
2019-03-21T03:05:23.502Z,0
2019-03-21T03:05:49.612Z,0
2019-03-21T03:06:15.719Z,0
2019-03-21T03:06:41.885Z,0
2019-03-21T03:07:08.054Z,0
2019-03-21T03:07:34.183Z,0
2019-03-21T03:08:00.326Z,0
2019-03-21T03:08:26.430Z,0
2019-03-21T03:08:52.594Z,0
2019-03-21T03:09:18.718Z,0
2019-03-21T03:09:44.855Z,0
2019-03-21T03:10:11.014Z,0
2019-03-21T03:10:37.147Z,0
2019-03-21T03:11:03.258Z,0
2019-03-21T03:11:30.394Z,0
2019-03-21T03:11:56.590Z,0
2019-03-21T03:12:22.688Z,0
2019-03-21T03:12:48.834Z,0
2019-03-21T03:13:14.945Z,0
2019-03-21T03:13:41.080Z,0
2019-03-21T03:14:08.205Z,0
2019-03-21T03:14:34.321Z,0
2019-03-21T03:15:00.452Z,0
2019-03-21T03:15:28.905Z,0
2019-03-21T03:15:55.071Z,0
2019-03-21T03:16:21.196Z,0
2019-03-21T03:16:47.336Z,0
2019-03-21T03:17:13.501Z,0
2019-03-21T03:17:39.600Z,0
2019-03-21T03:18:05.795Z,0
2019-03-21T03:18:31.935Z,0
2019-03-21T03:18:58.129Z,0
2019-03-21T03:19:24.267Z,0
2019-03-21T03:19:50.432Z,0
2019-03-21T03:20:16.583Z,0
2019-03-21T03:20:42.696Z,0
2019-03-21T03:21:08.830Z,0
2019-03-21T03:21:34.935Z,0
2019-03-21T03:22:01.070Z,0
2019-03-21T03:22:27.246Z,0
2019-03-21T03:22:53.388Z,0
2019-03-21T03:23:19.552Z,0
2019-03-21T03:23:45.665Z,0
2019-03-21T03:24:11.828Z,0
2019-03-21T03:24:37.934Z,0
2019-03-21T03:25:04.155Z,0
2019-03-21T03:25:30.319Z,0
2019-03-21T03:25:56.484Z,0
2019-03-21T03:26:22.619Z,0
2019-03-21T03:26:48.780Z,0
2019-03-21T03:27:14.886Z,0
2019-03-21T03:27:41.000Z,0
2019-03-21T03:28:07.177Z,0
2019-03-21T03:28:33.288Z,0
2019-03-21T03:28:59.410Z,0
2019-03-21T03:29:25.521Z,0
2019-03-21T03:29:51.627Z,0
2019-03-21T03:30:17.809Z,0
2019-03-21T03:30:43.980Z,0
2019-03-21T03:31:10.084Z,0
2019-03-21T03:31:36.348Z,0
2019-03-21T03:32:02.459Z,0
2019-03-21T03:32:28.636Z,0
2019-03-21T03:32:54.764Z,0
2019-03-21T03:33:20.928Z,0
2019-03-21T03:33:47.059Z,0
2019-03-21T03:34:13.182Z,0
2019-03-21T03:34:39.380Z,0
2019-03-21T03:35:06.204Z,0
2019-03-21T03:35:32.328Z,0
2019-03-21T03:35:58.495Z,0
2019-03-21T03:36:24.630Z,0
2019-03-21T03:36:50.763Z,0
2019-03-21T03:37:16.897Z,0
2019-03-21T03:37:43.029Z,0
2019-03-21T03:38:09.169Z,0
2019-03-21T03:38:35.278Z,0
2019-03-21T03:39:01.419Z,0
2019-03-21T03:39:27.558Z,0
2019-03-21T03:39:53.723Z,0
2019-03-21T03:40:19.837Z,0
2019-03-21T03:40:45.971Z,0
2019-03-21T03:41:12.106Z,0
2019-03-21T03:41:38.247Z,0
2019-03-21T03:42:04.386Z,0
2019-03-21T03:42:30.493Z,0
2019-03-21T03:42:56.658Z,0
2019-03-21T03:43:22.828Z,0
2019-03-21T03:43:48.957Z,0
2019-03-21T03:44:15.134Z,0
2019-03-21T03:44:41.271Z,0
2019-03-21T03:45:07.392Z,0
2019-03-21T03:45:37.667Z,0
2019-03-21T03:46:02.669Z,0
2019-03-21T03:46:28.835Z,0
2019-03-21T03:46:54.975Z,0
2019-03-21T03:47:21.145Z,0
2019-03-21T03:47:47.255Z,0
2019-03-21T03:48:13.358Z,0
2019-03-21T03:48:39.505Z,0
2019-03-21T03:49:05.637Z,0
2019-03-21T03:49:31.776Z,0
2019-03-21T03:49:57.916Z,0
2019-03-21T03:50:24.084Z,0
2019-03-21T03:50:50.191Z,0
2019-03-21T03:51:16.326Z,0
2019-03-21T03:51:42.493Z,0
2019-03-21T03:52:08.594Z,0
2019-03-21T03:52:34.709Z,0
2019-03-21T03:53:00.807Z,0
2019-03-21T03:53:26.961Z,0
2019-03-21T03:53:53.316Z,0
2019-03-21T03:54:19.506Z,0
2019-03-21T03:54:45.588Z,0
2019-03-21T03:55:11.725Z,0
2019-03-21T03:55:37.872Z,0
2019-03-21T03:56:03.997Z,0
2019-03-21T03:56:30.110Z,0
2019-03-21T03:56:56.218Z,0
2019-03-21T03:57:22.376Z,0
2019-03-21T03:57:48.472Z,0
2019-03-21T03:58:14.616Z,0
2019-03-21T03:58:40.747Z,0
2019-03-21T03:59:06.855Z,0
2019-03-21T03:59:32.986Z,0
2019-03-21T03:59:59.176Z,0
2019-03-21T04:00:25.284Z,0
2019-03-21T04:00:51.457Z,0
2019-03-21T04:01:17.579Z,0
2019-03-21T04:01:43.784Z,0
2019-03-21T04:02:09.902Z,0
2019-03-21T04:02:36.019Z,0
2019-03-21T04:03:02.147Z,0
2019-03-21T04:03:28.255Z,0
2019-03-21T04:03:54.378Z,0
2019-03-21T04:04:20.543Z,0
2019-03-21T04:04:46.737Z,0
2019-03-21T04:05:12.866Z,0
2019-03-21T04:05:38.981Z,0
2019-03-21T04:06:05.180Z,0
2019-03-21T04:06:31.322Z,0
2019-03-21T04:06:57.435Z,0
2019-03-21T04:07:23.557Z,0
2019-03-21T04:07:49.696Z,0
2019-03-21T04:08:15.873Z,0
2019-03-21T04:08:41.982Z,0
2019-03-21T04:09:08.111Z,0
2019-03-21T04:09:34.256Z,0
2019-03-21T04:10:00.545Z,0
2019-03-21T04:10:26.650Z,0
2019-03-21T04:10:52.847Z,0
2019-03-21T04:11:19.017Z,0
2019-03-21T04:11:45.124Z,0
2019-03-21T04:12:11.235Z,0
2019-03-21T04:12:37.341Z,0
2019-03-21T04:13:03.479Z,0
2019-03-21T04:13:29.593Z,0
2019-03-21T04:13:55.731Z,0
2019-03-21T04:14:22.008Z,0
2019-03-21T04:14:48.137Z,0
2019-03-21T04:15:14.238Z,0
2019-03-21T04:15:51.569Z,0
2019-03-21T04:16:07.591Z,0
2019-03-21T04:16:33.723Z,0
2019-03-21T04:16:59.830Z,0
2019-03-21T04:17:25.966Z,0
2019-03-21T04:17:52.075Z,0
2019-03-21T04:18:18.182Z,0
2019-03-21T04:18:44.292Z,0
2019-03-21T04:19:10.452Z,0
2019-03-21T04:19:36.567Z,0
2019-03-21T04:20:02.733Z,0
2019-03-21T04:20:28.835Z,0
2019-03-21T04:20:54.942Z,0
2019-03-21T04:21:21.046Z,0
2019-03-21T04:21:47.190Z,0
2019-03-21T04:22:13.379Z,0
2019-03-21T04:22:39.515Z,0
2019-03-21T04:23:05.615Z,0
2019-03-21T04:23:31.727Z,0
2019-03-21T04:23:59.653Z,0
2019-03-21T04:24:25.029Z,0
2019-03-21T04:24:51.196Z,0
2019-03-21T04:25:17.380Z,0
2019-03-21T04:25:43.548Z,0
2019-03-21T04:26:09.706Z,0
2019-03-21T04:26:35.815Z,0
2019-03-21T04:27:01.923Z,0
2019-03-21T04:27:28.061Z,0
2019-03-21T04:27:54.171Z,0
2019-03-21T04:28:20.315Z,0
2019-03-21T04:28:46.477Z,0
2019-03-21T04:29:12.615Z,0
2019-03-21T04:29:38.737Z,0
2019-03-21T04:30:04.874Z,0
2019-03-21T04:30:30.981Z,0
2019-03-21T04:30:57.085Z,0
2019-03-21T04:31:23.247Z,0
2019-03-21T04:31:49.346Z,0
2019-03-21T04:32:15.487Z,0
2019-03-21T04:32:41.606Z,0
2019-03-21T04:33:07.759Z,0
2019-03-21T04:33:33.947Z,0
2019-03-21T04:34:00.046Z,0
2019-03-21T04:34:26.150Z,0
2019-03-21T04:34:52.289Z,0
2019-03-21T04:35:18.422Z,0
2019-03-21T04:35:44.541Z,0
2019-03-21T04:36:10.651Z,0
2019-03-21T04:36:36.809Z,0
2019-03-21T04:37:02.925Z,0
2019-03-21T04:37:29.035Z,0
2019-03-21T04:37:55.168Z,0
2019-03-21T04:38:21.305Z,0
2019-03-21T04:38:47.431Z,0
2019-03-21T04:39:13.568Z,0
2019-03-21T04:39:39.714Z,0
2019-03-21T04:40:05.842Z,0
2019-03-21T04:40:31.983Z,0
2019-03-21T04:40:58.113Z,0
2019-03-21T04:41:24.299Z,0
2019-03-21T04:41:50.455Z,0
2019-03-21T04:42:16.563Z,0
2019-03-21T04:42:42.668Z,0
2019-03-21T04:43:08.775Z,0
2019-03-21T04:43:34.888Z,0
2019-03-21T04:44:01.026Z,0
2019-03-21T04:44:27.163Z,0
2019-03-21T04:44:53.300Z,0
2019-03-21T04:45:19.405Z,0
2019-03-21T04:45:45.516Z,0
2019-03-21T04:46:12.672Z,0
2019-03-21T04:46:38.807Z,0
2019-03-21T04:47:04.978Z,0
2019-03-21T04:47:31.087Z,0
2019-03-21T04:47:57.227Z,0
2019-03-21T04:48:23.359Z,0
2019-03-21T04:48:49.469Z,0
2019-03-21T04:49:15.578Z,0
2019-03-21T04:49:41.686Z,0
2019-03-21T04:50:07.801Z,0
2019-03-21T04:50:33.902Z,0
2019-03-21T04:51:00.016Z,0
2019-03-21T04:51:26.125Z,0
2019-03-21T04:51:52.238Z,0
2019-03-21T04:52:18.346Z,0
2019-03-21T04:52:44.458Z,0
2019-03-21T04:53:10.591Z,0
2019-03-21T04:53:36.723Z,0
2019-03-21T04:54:03.825Z,0
2019-03-21T04:54:29.969Z,0
2019-03-21T04:54:56.066Z,0
2019-03-21T04:55:22.172Z,0
2019-03-21T04:55:48.283Z,0
2019-03-21T04:56:14.393Z,0
2019-03-21T04:56:40.527Z,0
2019-03-21T04:57:06.665Z,0
2019-03-21T04:57:32.773Z,0
2019-03-21T04:57:58.882Z,0
2019-03-21T04:58:25.012Z,0
2019-03-21T04:58:51.125Z,0
2019-03-21T04:59:17.251Z,0
2019-03-21T04:59:43.364Z,0
2019-03-21T05:00:09.510Z,0
2019-03-21T05:00:35.613Z,0
2019-03-21T05:01:01.778Z,0
2019-03-21T05:01:27.961Z,0
2019-03-21T05:01:54.107Z,0
2019-03-21T05:02:20.213Z,0
2019-03-21T05:02:46.317Z,0
2019-03-21T05:03:12.457Z,0
2019-03-21T05:03:38.590Z,0
2019-03-21T05:04:04.705Z,0
2019-03-21T05:04:30.810Z,0
2019-03-21T05:04:56.921Z,0
2019-03-21T05:05:23.049Z,4
2019-03-21T05:05:49.189Z,4
2019-03-21T05:06:15.301Z,4
2019-03-21T05:06:42.431Z,4
2019-03-21T05:07:08.639Z,0
2019-03-21T05:07:34.779Z,0
2019-03-21T05:08:00.886Z,0
2019-03-21T05:08:26.998Z,4
2019-03-21T05:08:53.106Z,4
2019-03-21T05:09:19.208Z,4
2019-03-21T05:09:45.346Z,4
2019-03-21T05:10:11.458Z,4
2019-03-21T05:10:37.593Z,4
2019-03-21T05:11:03.707Z,4
2019-03-21T05:11:29.813Z,4
2019-03-21T05:11:55.921Z,4
2019-03-21T05:12:22.026Z,4
2019-03-21T05:12:48.139Z,8
2019-03-21T05:13:14.244Z,4
2019-03-21T05:13:40.384Z,8
2019-03-21T05:14:06.487Z,8
2019-03-21T05:14:32.593Z,8
2019-03-21T05:14:58.703Z,8
2019-03-21T05:15:24.804Z,8
2019-03-21T05:15:50.918Z,12
2019-03-21T05:16:19.000Z,12
2019-03-21T05:16:45.119Z,12
2019-03-21T05:17:11.231Z,16
2019-03-21T05:17:37.337Z,12
2019-03-21T05:18:03.452Z,12
2019-03-21T05:18:29.584Z,16
2019-03-21T05:18:55.773Z,16
2019-03-21T05:19:21.910Z,20
2019-03-21T05:19:48.014Z,20
2019-03-21T05:20:14.436Z,20
2019-03-21T05:20:40.612Z,24
2019-03-21T05:21:06.728Z,24
2019-03-21T05:21:32.866Z,28
2019-03-21T05:21:58.973Z,28
2019-03-21T05:22:25.121Z,28
2019-03-21T05:22:51.222Z,28
2019-03-21T05:23:17.365Z,36
2019-03-21T05:23:43.473Z,36
2019-03-21T05:24:09.588Z,40
2019-03-21T05:24:35.693Z,44
2019-03-21T05:25:01.802Z,48
2019-03-21T05:25:27.911Z,48
2019-03-21T05:25:54.014Z,48
2019-03-21T05:26:20.125Z,52
2019-03-21T05:26:46.234Z,60
2019-03-21T05:27:12.347Z,60
2019-03-21T05:27:38.452Z,64
2019-03-21T05:28:04.564Z,68
2019-03-21T05:28:30.676Z,72
2019-03-21T05:28:56.785Z,72
2019-03-21T05:29:22.886Z,76
2019-03-21T05:29:48.998Z,80
2019-03-21T05:30:15.107Z,80
2019-03-21T05:30:41.211Z,84
2019-03-21T05:31:07.323Z,84
2019-03-21T05:31:33.430Z,92
2019-03-21T05:31:59.560Z,96
2019-03-21T05:32:25.691Z,100
2019-03-21T05:32:51.772Z,104
2019-03-21T05:33:17.882Z,108
2019-03-21T05:33:44.022Z,116
2019-03-21T05:34:10.159Z,124
2019-03-21T05:34:36.303Z,128
2019-03-21T05:35:02.406Z,136
2019-03-21T05:35:28.518Z,144
2019-03-21T05:35:54.623Z,152
2019-03-21T05:36:20.738Z,156
2019-03-21T05:36:46.871Z,164
2019-03-21T05:37:12.984Z,172
2019-03-21T05:37:39.096Z,180
2019-03-21T05:38:05.209Z,188
2019-03-21T05:38:31.319Z,196
2019-03-21T05:38:57.420Z,204
2019-03-21T05:39:23.531Z,212
2019-03-21T05:39:49.672Z,220
2019-03-21T05:40:15.985Z,232
2019-03-21T05:40:42.097Z,240
2019-03-21T05:41:08.208Z,252
2019-03-21T05:41:34.314Z,260
2019-03-21T05:42:00.438Z,272
2019-03-21T05:42:26.552Z,280
2019-03-21T05:42:52.653Z,296
2019-03-21T05:43:18.784Z,308
2019-03-21T05:43:44.893Z,320
2019-03-21T05:44:10.993Z,332
2019-03-21T05:44:37.098Z,344
2019-03-21T05:45:03.207Z,356
2019-03-21T05:45:29.316Z,364
2019-03-21T05:45:55.427Z,372
2019-03-21T05:46:26.770Z,384
2019-03-21T05:46:49.632Z,396
2019-03-21T05:47:15.742Z,404
2019-03-21T05:47:41.845Z,420
2019-03-21T05:48:07.952Z,436
2019-03-21T05:48:34.061Z,448
2019-03-21T05:49:00.160Z,468
2019-03-21T05:49:26.272Z,488
2019-03-21T05:49:52.407Z,508
2019-03-21T05:50:19.512Z,528
2019-03-21T05:50:45.617Z,552
2019-03-21T05:51:11.728Z,576
2019-03-21T05:51:37.830Z,604
2019-03-21T05:52:03.941Z,636
2019-03-21T05:52:30.081Z,672
2019-03-21T05:52:56.185Z,708
2019-03-21T05:53:22.291Z,744
2019-03-21T05:53:48.402Z,780
2019-03-21T05:54:14.518Z,808
2019-03-21T05:54:40.647Z,836
2019-03-21T05:55:06.758Z,848
2019-03-21T05:55:32.879Z,868
2019-03-21T05:55:59.009Z,884
2019-03-21T05:56:25.120Z,904
2019-03-21T05:56:51.225Z,932
2019-03-21T05:57:17.335Z,964
2019-03-21T05:57:43.437Z,988
2019-03-21T05:58:09.548Z,992
2019-03-21T05:58:35.657Z,992
2019-03-21T05:59:01.767Z,996
2019-03-21T05:59:27.902Z,1008
2019-03-21T05:59:54.014Z,1028
2019-03-21T06:00:20.126Z,1060
2019-03-21T06:00:46.239Z,1104
2019-03-21T06:01:12.457Z,1156
2019-03-21T06:01:38.569Z,1204
2019-03-21T06:02:04.681Z,1256
2019-03-21T06:02:30.794Z,1308
2019-03-21T06:02:56.899Z,1352
2019-03-21T06:03:23.009Z,1404
2019-03-21T06:03:49.116Z,1460
2019-03-21T06:04:15.232Z,1508
2019-03-21T06:04:41.341Z,1548
2019-03-21T06:05:07.456Z,1572
2019-03-21T06:05:33.565Z,1544
2019-03-21T06:05:59.678Z,1556
2019-03-21T06:06:26.775Z,1568
2019-03-21T06:06:52.885Z,1588
2019-03-21T06:07:19.033Z,1608
2019-03-21T06:07:45.196Z,1628
2019-03-21T06:08:11.305Z,1684
2019-03-21T06:08:37.422Z,1708
2019-03-21T06:09:03.531Z,1732
2019-03-21T06:09:29.700Z,1764
2019-03-21T06:09:55.776Z,1792
2019-03-21T06:10:21.889Z,1832
2019-03-21T06:10:48.024Z,1876
2019-03-21T06:11:14.122Z,1932
2019-03-21T06:11:40.234Z,1996
2019-03-21T06:12:06.338Z,2068
2019-03-21T06:12:32.471Z,2140
2019-03-21T06:12:58.580Z,2212
2019-03-21T06:13:24.718Z,2276
2019-03-21T06:13:50.834Z,2328
2019-03-21T06:14:16.932Z,2376
2019-03-21T06:14:43.044Z,2412
2019-03-21T06:15:09.185Z,2448
2019-03-21T06:15:35.290Z,2492
2019-03-21T06:16:01.423Z,2544
2019-03-21T06:16:37.158Z,2608
2019-03-21T06:16:55.646Z,2700
2019-03-21T06:17:21.766Z,2796
2019-03-21T06:17:47.870Z,2908
2019-03-21T06:18:13.975Z,3040
2019-03-21T06:18:40.090Z,3172
2019-03-21T06:19:06.199Z,3316
2019-03-21T06:19:32.308Z,3480
2019-03-21T06:19:58.441Z,3652
2019-03-21T06:20:24.573Z,3844
2019-03-21T06:20:50.681Z,4064
2019-03-21T06:21:16.787Z,4316
2019-03-21T06:21:42.892Z,4592
2019-03-21T06:22:09.031Z,4864
2019-03-21T06:22:35.151Z,5100
2019-03-21T06:23:01.256Z,5256
2019-03-21T06:23:27.396Z,5344
2019-03-21T06:23:53.508Z,5376
2019-03-21T06:24:19.646Z,5368
2019-03-21T06:24:45.755Z,5312
2019-03-21T06:25:11.936Z,5232
2019-03-21T06:25:39.056Z,5140
2019-03-21T06:26:05.194Z,5052
2019-03-21T06:26:31.304Z,5008
2019-03-21T06:26:57.427Z,5000
2019-03-21T06:27:25.591Z,5052